Time;durP1;ratioP1;P1;durP2;ratioP2;P2;SDS_P1;SDS_P2;PMS_P1;PMS_P2;Temp;Humidity;BMP_temperature;BMP_pressure;BME280_temperature;BME280_humidity;BME280_pressure;Samples;Min_cycle;Max_cycle;Signal;HPM_P1;HPM_P2
2023/01/16 00:02:59;;;;;;;1.27;1.07;;;6.70;38.90;;;;;;10497602;28;20231;-79
2023/01/16 00:08:03;;;;;;;1.33;1.00;;;6.70;38.30;;;;;;10497445;28;20224;-79
2023/01/16 00:13:06;;;;;;;1.10;0.90;;;6.70;38.60;;;;;;10500351;28;20723;-79
2023/01/16 00:18:10;;;;;;;1.87;0.90;;;6.60;38.60;;;;;;10499341;28;20232;-79
2023/01/16 00:23:14;;;;;;;1.50;0.70;;;6.60;38.60;;;;;;10494709;28;20232;-80
2023/01/16 00:28:17;;;;;;;1.00;0.80;;;6.60;38.60;;;;;;10495774;28;20605;-79
2023/01/16 00:33:21;;;;;;;1.20;0.80;;;6.60;38.70;;;;;;10498254;28;20247;-79
2023/01/16 00:38:25;;;;;;;1.53;0.90;;;6.60;38.70;;;;;;10494290;28;20263;-80
2023/01/16 00:43:28;;;;;;;2.93;0.80;;;6.60;38.60;;;;;;10492917;28;20243;-79
2023/01/16 00:48:32;;;;;;;1.80;0.70;;;6.50;38.70;;;;;;10496898;28;20236;-79
2023/01/16 00:53:36;;;;;;;0.80;0.70;;;6.50;38.70;;;;;;10498259;28;20232;-80
2023/01/16 00:58:39;;;;;;;0.70;0.70;;;6.50;38.70;;;;;;10487012;28;20713;-79
2023/01/16 01:03:43;;;;;;;0.70;0.70;;;6.50;38.70;;;;;;10496472;28;20251;-80
2023/01/16 01:08:47;;;;;;;2.67;0.80;;;6.40;38.70;;;;;;10496095;28;20231;-79
2023/01/16 01:13:50;;;;;;;0.70;0.70;;;6.40;38.80;;;;;;10496813;28;20232;-79
2023/01/16 01:24:56;;;;;;;0.70;0.70;;;6.30;38.80;;;;;;10491983;28;20228;-79
2023/01/16 01:30:00;;;;;;;1.23;0.80;;;6.30;38.90;;;;;;10494118;28;20731;-79
2023/01/16 01:35:03;;;;;;;1.43;0.73;;;6.30;38.90;;;;;;10495601;28;20483;-79
2023/01/16 01:40:09;;;;;;;1.80;0.70;;;6.30;38.90;;;;;;10495537;28;20293;-79
2023/01/16 01:45:17;;;;;;;0.90;0.90;;;6.20;38.90;;;;;;10496788;28;20236;-79
2023/01/16 01:50:27;;;;;;;2.00;0.80;;;6.20;38.80;;;;;;10505051;28;20232;-79
2023/01/16 01:55:32;;;;;;;0.97;0.83;;;6.20;39.00;;;;;;10503945;28;20228;-79
2023/01/16 02:00:35;;;;;;;1.00;0.90;;;6.10;39.00;;;;;;10501789;28;20231;-79
2023/01/16 02:05:44;;;;;;;1.27;0.80;;;6.10;39.10;;;;;;10502481;28;21018;-79
2023/01/16 02:10:53;;;;;;;1.60;0.80;;;6.10;39.10;;;;;;10503347;28;20685;-79
2023/01/16 02:21:41;;;;;;;1.37;0.70;;;6.20;39.00;;;;;;10503288;28;20238;-79
2023/01/16 02:27:10;;;;;;;1.03;0.80;;;6.20;38.90;;;;;;10502632;28;20224;-79
2023/01/16 02:32:41;;;;;;;1.43;0.90;;;6.10;38.80;;;;;;10501750;28;20225;-79
2023/01/16 02:37:48;;;;;;;1.53;0.80;;;6.20;39.00;;;;;;10499900;28;20278;-79
2023/01/16 02:43:01;;;;;;;0.80;0.70;;;6.20;38.90;;;;;;10502847;28;20239;-79
2023/01/16 02:48:15;;;;;;;0.80;0.80;;;6.20;39.00;;;;;;10502119;28;20242;-79
2023/01/16 02:53:23;;;;;;;3.10;1.00;;;6.20;38.90;;;;;;10497090;28;20271;-79
2023/01/16 02:58:29;;;;;;;1.57;1.10;;;6.20;38.90;;;;;;10499510;28;20235;-79
2023/01/16 03:03:41;;;;;;;1.07;0.90;;;6.30;38.70;;;;;;10494721;28;20239;-79
2023/01/16 03:08:50;;;;;;;0.90;0.90;;;6.20;38.40;;;;;;10498308;28;20240;-79
2023/01/16 03:14:12;;;;;;;2.13;0.90;;;6.20;38.50;;;;;;10499055;28;20232;-79
2023/01/16 03:19:28;;;;;;;1.23;0.83;;;6.20;38.40;;;;;;10499381;28;20244;-79
2023/01/16 03:24:41;;;;;;;0.80;0.80;;;6.20;38.40;;;;;;10498134;28;20238;-79
2023/01/16 03:29:51;;;;;;;0.77;0.70;;;6.20;38.50;;;;;;10498412;28;20716;-79
2023/01/16 03:35:02;;;;;;;1.30;0.90;;;6.10;38.40;;;;;;10491124;28;20240;-79
2023/01/16 03:40:06;;;;;;;0.80;0.70;;;6.10;38.60;;;;;;10497993;28;20228;-79
2023/01/16 03:45:17;;;;;;;0.90;0.90;;;6.10;38.70;;;;;;10497580;28;20228;-79
2023/01/16 03:50:24;;;;;;;2.10;1.23;;;6.10;38.60;;;;;;10499365;28;20230;-79
2023/01/16 03:55:31;;;;;;;1.23;1.00;;;6.20;38.60;;;;;;10499356;28;20240;-80
2023/01/16 04:00:40;;;;;;;1.73;0.90;;;6.20;38.20;;;;;;10496199;28;20234;-80
2023/01/16 04:05:52;;;;;;;1.57;0.90;;;6.20;38.20;;;;;;10501509;28;20224;-79
2023/01/16 04:10:55;;;;;;;1.70;1.30;;;6.20;38.30;;;;;;10496221;28;20684;-80
2023/01/16 04:16:02;;;;;;;0.90;0.90;;;6.30;38.40;;;;;;10496293;28;20229;-80
2023/01/16 04:21:08;;;;;;;1.10;1.00;;;6.30;38.30;;;;;;10498304;28;20228;-79
2023/01/16 04:26:11;;;;;;;1.37;1.00;;;6.30;37.90;;;;;;10492077;28;20224;-79
2023/01/16 04:31:14;;;;;;;0.83;0.80;;;6.20;38.00;;;;;;10491568;28;20231;-79
2023/01/16 04:36:19;;;;;;;0.80;0.80;;;6.20;37.90;;;;;;10489985;28;20699;-79
2023/01/16 04:41:36;;;;;;;1.03;0.90;;;6.20;38.00;;;;;;10488882;28;20228;-79
2023/01/16 04:46:39;;;;;;;1.40;0.90;;;6.20;37.90;;;;;;10486096;28;20234;-79
2023/01/16 04:51:44;;;;;;;1.20;1.10;;;6.20;37.80;;;;;;10487514;28;20236;-79
2023/01/16 04:56:47;;;;;;;1.27;0.90;;;6.10;37.70;;;;;;10486587;28;20580;-78
2023/01/16 05:01:53;;;;;;;1.93;1.13;;;6.00;37.60;;;;;;10485264;28;20236;-78
2023/01/16 05:06:58;;;;;;;1.20;0.90;;;5.90;37.50;;;;;;10482034;28;20257;-78
2023/01/16 05:12:01;;;;;;;0.90;0.80;;;5.80;37.60;;;;;;10482189;28;20235;-78
2023/01/16 05:17:04;;;;;;;2.17;1.40;;;5.70;38.00;;;;;;10483991;28;20228;-78
2023/01/16 05:22:08;;;;;;;1.30;1.30;;;5.70;38.00;;;;;;10484196;28;20231;-77
2023/01/16 05:27:11;;;;;;;2.07;1.97;;;5.70;38.20;;;;;;10481880;28;20228;-78
2023/01/16 05:32:15;;;;;;;5.20;4.70;;;5.70;38.10;;;;;;10480767;28;20232;-77
2023/01/16 05:37:19;;;;;;;3.27;2.30;;;5.70;38.00;;;;;;10484183;28;20231;-77
2023/01/16 05:42:24;;;;;;;1.70;1.60;;;5.70;38.00;;;;;;10484735;28;20777;-77
2023/01/16 05:47:27;;;;;;;1.50;1.40;;;5.60;38.00;;;;;;10485375;28;20846;-77
2023/01/16 05:52:32;;;;;;;2.60;1.40;;;5.60;37.90;;;;;;10485312;28;20617;-77
2023/01/16 05:57:35;;;;;;;4.43;3.23;;;5.60;37.90;;;;;;10481186;28;20239;-77
2023/01/16 06:02:38;;;;;;;6.23;4.17;;;5.50;37.90;;;;;;10486145;28;20262;-77
2023/01/16 06:07:43;;;;;;;3.97;2.80;;;5.40;38.10;;;;;;10486247;28;20232;-78
2023/01/16 06:12:46;;;;;;;2.40;2.07;;;5.40;38.30;;;;;;10485980;28;20235;-77
2023/01/16 06:17:50;;;;;;;1.70;1.60;;;5.40;38.40;;;;;;10488146;28;20711;-78
2023/01/16 06:22:55;;;;;;;4.40;1.50;;;5.50;38.40;;;;;;10492001;28;20228;-78
2023/01/16 06:27:58;;;;;;;1.63;1.50;;;5.60;40.00;;;;;;10490775;28;20257;-79
2023/01/16 06:33:01;;;;;;;1.23;1.10;;;5.60;39.10;;;;;;10501615;28;20232;-79
2023/01/16 06:38:06;;;;;;;1.30;1.20;;;5.60;38.50;;;;;;10505463;28;20660;-79
2023/01/16 06:43:09;;;;;;;2.10;1.33;;;5.60;38.30;;;;;;10503045;28;20236;-79
2023/01/16 06:48:12;;;;;;;1.40;1.30;;;5.60;38.10;;;;;;10502524;28;20231;-78
2023/01/16 06:53:17;;;;;;;5.33;1.80;;;5.60;38.00;;;;;;10504416;28;20240;-79
2023/01/16 06:58:20;;;;;;;1.57;1.47;;;5.50;37.80;;;;;;10504811;28;20300;-78
2023/01/16 07:03:24;;;;;;;1.70;1.43;;;5.50;37.90;;;;;;10499037;28;20327;-80
2023/01/16 07:08:29;;;;;;;1.90;1.70;;;5.50;37.70;;;;;;10503837;28;20315;-78
2023/01/16 07:13:32;;;;;;;3.50;2.83;;;5.40;37.50;;;;;;10501998;28;20232;-78
2023/01/16 07:24:01;;;;;;;4.60;3.33;;;5.40;37.60;;;;;;10495543;28;20236;-79
2023/01/16 07:29:05;;;;;;;6.07;3.33;;;5.30;37.60;;;;;;10487179;28;20228;-79
2023/01/16 07:34:08;;;;;;;4.00;3.10;;;5.30;37.70;;;;;;10488135;28;20229;-78
2023/01/16 07:39:13;;;;;;;4.07;2.87;;;5.20;37.70;;;;;;10485395;28;20216;-79
2023/01/16 07:44:17;;;;;;;3.63;2.57;;;5.20;37.70;;;;;;10489279;28;20235;-80
2023/01/16 07:49:20;;;;;;;2.37;2.17;;;5.20;37.90;;;;;;10491728;28;20783;-79
2023/01/16 07:54:24;;;;;;;2.20;2.00;;;5.10;37.80;;;;;;10485674;28;20232;-78
2023/01/16 07:59:28;;;;;;;2.50;2.00;;;5.20;38.00;;;;;;10486551;28;20262;-80
2023/01/16 08:04:31;;;;;;;3.07;2.23;;;5.20;38.20;;;;;;10486471;28;20240;-80
2023/01/16 08:09:36;;;;;;;2.20;1.83;;;5.20;38.40;;;;;;10490446;28;20240;-81
2023/01/16 08:14:40;;;;;;;2.20;1.90;;;5.30;38.70;;;;;;10488115;28;20236;-81
2023/01/16 08:19:43;;;;;;;1.90;1.63;;;5.40;38.80;;;;;;10483010;28;20569;-80
2023/01/16 08:24:48;;;;;;;1.60;1.47;;;5.50;38.70;;;;;;10489456;28;20224;-80
2023/01/16 08:29:51;;;;;;;1.37;1.23;;;5.60;38.70;;;;;;10493989;28;20232;-79
2023/01/16 08:34:55;;;;;;;1.30;1.20;;;5.80;38.90;;;;;;10490578;28;20700;-80
2023/01/16 08:40:00;;;;;;;1.30;1.20;;;5.90;38.80;;;;;;10492396;28;20232;-82
2023/01/16 08:55:46;;;;;;;4.00;1.10;;;6.30;38.50;;;;;;10487969;28;20236;-79
2023/01/16 09:00:50;;;;;;;7.37;1.17;;;6.50;38.10;;;;;;10489215;28;20227;-81
2023/01/16 09:05:53;;;;;;;1.00;1.00;;;6.60;38.30;;;;;;10495461;28;20230;-79
2023/01/16 09:16:19;;;;;;;1.23;0.90;;;7.00;38.40;;;;;;10498719;28;20285;-79
2023/01/16 09:21:24;;;;;;;1.07;1.03;;;7.20;38.60;;;;;;10499498;28;20236;-79
2023/01/16 09:26:28;;;;;;;2.10;1.17;;;7.30;38.20;;;;;;10503363;28;20228;-79
2023/01/16 09:31:31;;;;;;;4.53;1.13;;;7.30;37.60;;;;;;10497172;28;20251;-78
2023/01/16 09:36:35;;;;;;;2.73;1.17;;;7.40;37.70;;;;;;10495769;28;20235;-78
2023/01/16 09:47:11;;;;;;;0.83;0.80;;;7.60;37.70;;;;;;10493280;28;20235;-79
2023/01/16 10:03:03;;;;;;;1.17;1.07;;;8.00;38.30;;;;;;10503323;28;20228;-80
2023/01/16 10:08:18;;;;;;;0.80;0.70;;;8.10;37.90;;;;;;10509242;28;20762;-79
2023/01/16 10:13:46;;;;;;;0.60;0.60;;;8.20;37.20;;;;;;10504131;28;20244;-79
2023/01/16 10:18:57;;;;;;;0.80;0.80;;;8.40;35.80;;;;;;10506345;28;20220;-79
2023/01/16 10:24:03;;;;;;;1.00;0.70;;;8.60;36.10;;;;;;10504230;28;20237;-79
2023/01/16 10:29:20;;;;;;;1.93;0.83;;;8.70;36.60;;;;;;10504543;28;20232;-79
2023/01/16 10:34:29;;;;;;;1.03;1.00;;;8.80;33.80;;;;;;10506517;28;20232;-79
2023/01/16 10:39:34;;;;;;;3.00;1.17;;;8.90;35.50;;;;;;10506491;28;20228;-80
2023/01/16 10:50:01;;;;;;;0.90;0.90;;;9.00;35.50;;;;;;10500930;28;20236;-77
2023/01/16 10:55:06;;;;;;;1.00;0.90;;;9.10;34.90;;;;;;10492359;28;20220;-77
2023/01/16 11:00:21;;;;;;;0.97;0.87;;;9.10;34.60;;;;;;10501113;28;20228;-79
2023/01/16 11:05:30;;;;;;;1.07;0.93;;;9.00;33.60;;;;;;10497846;28;20247;-79
2023/01/16 11:10:34;;;;;;;1.63;1.00;;;9.00;34.00;;;;;;10498358;28;20236;-79
2023/01/16 11:21:14;;;;;;;1.60;1.43;;;9.00;34.50;;;;;;10498646;28;20788;-78
2023/01/16 11:26:18;;;;;;;1.90;1.40;;;9.10;35.50;;;;;;10497949;28;20243;-76
2023/01/16 11:31:26;;;;;;;0.97;0.80;;;9.20;35.20;;;;;;10492540;28;20244;-77
2023/01/16 11:36:32;;;;;;;1.10;1.10;;;9.30;34.10;;;;;;10499666;28;20599;-79
2023/01/16 11:41:38;;;;;;;0.80;0.80;;;9.30;33.80;;;;;;10494619;28;20240;-77
2023/01/16 11:46:43;;;;;;;1.50;1.27;;;9.30;34.30;;;;;;10493281;28;20232;-78
2023/01/16 11:51:52;;;;;;;3.67;2.20;;;9.30;34.20;;;;;;10492633;28;20240;-77
2023/01/16 11:57:16;;;;;;;3.13;1.80;;;9.30;33.50;;;;;;10492334;28;20224;-76
2023/01/16 12:02:42;;;;;;;1.47;1.10;;;9.30;33.40;;;;;;10491274;28;20236;-77
2023/01/16 12:07:57;;;;;;;3.23;2.00;;;9.40;32.50;;;;;;10490013;28;20228;-77
2023/01/16 12:18:39;;;;;;;1.70;1.00;;;9.50;33.60;;;;;;10417654;28;20696;-76
2023/01/16 12:23:58;;;;;;;1.47;1.07;;;9.60;33.40;;;;;;10492495;28;20228;-76
2023/01/16 12:29:21;;;;;;;2.30;0.90;;;9.70;33.80;;;;;;10492734;28;20228;-76
2023/01/16 12:34:52;;;;;;;2.03;0.70;;;9.70;32.90;;;;;;10493835;28;20255;-76
2023/01/16 12:40:02;;;;;;;0.80;0.80;;;9.70;32.70;;;;;;10493446;28;20228;-76
2023/01/16 12:45:20;;;;;;;1.10;0.87;;;9.70;33.90;;;;;;10495676;28;20806;-79
2023/01/16 12:50:45;;;;;;;1.00;0.90;;;9.70;34.00;;;;;;10502836;28;20249;-79
2023/01/16 12:55:57;;;;;;;7.77;6.50;;;9.80;33.50;;;;;;10503017;28;20228;-80
2023/01/16 13:01:13;;;;;;;6.43;4.67;;;9.80;34.00;;;;;;10495729;28;20224;-78
2023/01/16 13:06:35;;;;;;;3.80;3.50;;;9.80;34.20;;;;;;10500390;28;20259;-78
2023/01/16 13:17:13;;;;;;;1.30;1.20;;;9.80;34.40;;;;;;10500858;28;20654;-78
2023/01/16 13:22:43;;;;;;;0.90;0.90;;;9.90;34.50;;;;;;10494549;28;20282;-78
2023/01/16 13:27:51;;;;;;;1.20;1.10;;;9.90;33.80;;;;;;10494507;28;20232;-78
2023/01/16 13:33:00;;;;;;;1.43;1.10;;;9.90;34.30;;;;;;10495071;28;20236;-78
2023/01/16 13:38:39;;;;;;;1.10;1.00;;;9.80;34.30;;;;;;10498347;28;20224;-80
2023/01/16 13:49:12;;;;;;;0.93;0.90;;;9.70;34.60;;;;;;10504115;28;20598;-79
2023/01/16 13:54:20;;;;;;;0.97;0.97;;;9.70;35.00;;;;;;10498546;28;20224;-78
2023/01/16 13:59:35;;;;;;;1.33;1.10;;;9.60;34.80;;;;;;10496874;28;20874;-78
2023/01/16 14:04:38;;;;;;;1.57;0.90;;;9.60;34.70;;;;;;10496629;28;20232;-79
2023/01/16 14:10:14;;;;;;;1.00;1.00;;;9.60;35.20;;;;;;10496457;28;20239;-78
2023/01/16 14:20:51;;;;;;;1.60;1.50;;;9.70;35.10;;;;;;10507630;28;20220;-81
2023/01/16 14:25:57;;;;;;;1.83;1.70;;;9.70;34.60;;;;;;10511107;28;20228;-80
2023/01/16 14:31:02;;;;;;;2.87;2.57;;;9.80;34.80;;;;;;10507580;28;20304;-80
2023/01/16 14:36:14;;;;;;;3.63;2.40;;;9.80;35.00;;;;;;10493514;28;20230;-80
2023/01/16 14:57:40;;;;;;;3.53;2.47;;;9.70;35.60;;;;;;10508898;28;20228;-80
2023/01/16 15:02:52;;;;;;;4.33;2.27;;;9.80;35.30;;;;;;10510276;28;20254;-80
2023/01/16 15:07:58;;;;;;;2.80;2.60;;;9.80;35.00;;;;;;10505591;28;20900;-80
2023/01/16 15:13:17;;;;;;;3.00;2.77;;;9.80;35.20;;;;;;10500697;28;20647;-80
2023/01/16 15:23:41;;;;;;;2.90;2.60;;;9.70;35.30;;;;;;10508082;28;20250;-82
2023/01/16 15:29:02;;;;;;;3.37;3.10;;;9.60;35.40;;;;;;10502087;28;20229;-81
2023/01/16 15:34:20;;;;;;;15.37;12.83;;;9.70;35.30;;;;;;10499070;28;20224;-80
2023/01/16 15:39:28;;;;;;;7.47;6.40;;;9.70;35.40;;;;;;10501045;28;20315;-82
2023/01/16 15:50:23;;;;;;;9.07;8.17;;;9.60;35.10;;;;;;10499281;28;20759;-82
2023/01/16 15:55:29;;;;;;;7.43;6.73;;;9.50;35.20;;;;;;10499464;28;20289;-81
2023/01/16 16:00:36;;;;;;;6.73;5.70;;;9.50;35.40;;;;;;10499415;28;20228;-81
2023/01/16 16:05:40;;;;;;;4.50;4.10;;;9.40;35.50;;;;;;10492744;28;20232;-81
2023/01/16 16:22:47;;;;;;;8.23;7.43;;;9.30;35.30;;;;;;10494729;28;20311;-81
2023/01/16 16:27:15;;;;;;;11.43;8.93;;;9.30;35.60;;;;;;10492282;28;20236;-80
2023/01/16 16:32:21;;;;;;;10.40;8.20;;;9.30;35.50;;;;;;10501191;28;20275;-80
2023/01/16 16:37:26;;;;;;;7.57;6.33;;;9.30;37.40;;;;;;10498547;28;20282;-82
2023/01/16 16:42:52;;;;;;;6.03;5.43;;;9.30;36.40;;;;;;10499107;28;20240;-82
2023/01/16 16:48:34;;;;;;;5.40;4.50;;;9.30;36.00;;;;;;10500281;28;20230;-82
2023/01/16 16:53:46;;;;;;;4.90;4.43;;;9.30;35.90;;;;;;10504587;28;20228;-83
2023/01/16 16:58:50;;;;;;;5.33;4.63;;;9.30;35.80;;;;;;10503211;28;20306;-82
2023/01/16 17:04:16;;;;;;;5.73;4.37;;;9.20;35.70;;;;;;10502042;28;20241;-81
2023/01/16 17:09:31;;;;;;;4.80;4.40;;;9.20;35.50;;;;;;10494177;28;20243;-81
2023/01/16 17:14:34;;;;;;;7.90;6.83;;;9.00;35.80;;;;;;10491581;28;20258;-81
2023/01/16 17:19:40;;;;;;;9.23;8.10;;;8.90;35.60;;;;;;10506399;28;20300;-81
2023/01/16 17:24:44;;;;;;;7.60;6.00;;;8.80;35.60;;;;;;10505159;28;20251;-80
2023/01/16 17:29:51;;;;;;;7.87;7.03;;;8.60;35.60;;;;;;10495850;28;20232;-82
2023/01/16 17:34:55;;;;;;;5.30;4.30;;;8.40;35.90;;;;;;10499142;28;20239;-82
2023/01/16 17:40:00;;;;;;;4.00;3.30;;;8.30;36.00;;;;;;10496605;28;20228;-82
2023/01/16 17:50:36;;;;;;;3.53;2.90;;;8.00;36.40;;;;;;10494505;28;20232;-83
2023/01/16 17:55:55;;;;;;;3.87;3.43;;;7.80;36.20;;;;;;10494733;28;20754;-82
2023/01/16 18:01:00;;;;;;;3.50;3.10;;;7.70;36.40;;;;;;10497205;28;20310;-83
2023/01/16 18:06:06;;;;;;;3.53;3.23;;;7.60;36.30;;;;;;10502865;28;20440;-85
2023/01/16 18:22:05;;;;;;;5.37;4.50;;;7.60;36.10;;;;;;10498583;28;20224;-87
2023/01/16 18:27:16;;;;;;;5.83;5.23;;;7.50;35.90;;;;;;10496534;28;20232;-81
2023/01/16 18:32:22;;;;;;;6.17;5.57;;;7.50;35.70;;;;;;10503038;28;20232;-83
2023/01/16 18:37:30;;;;;;;4.77;4.37;;;7.50;35.80;;;;;;10500296;28;20240;-83
2023/01/16 19:04:06;;;;;;;5.33;1.40;;;7.50;35.00;;;;;;10499748;28;20254;-83
2023/01/16 19:09:11;;;;;;;1.43;1.30;;;7.60;35.30;;;;;;10500464;28;20242;-84
2023/01/16 19:14:16;;;;;;;1.10;1.00;;;7.70;35.00;;;;;;10508688;28;20227;-83
2023/01/16 19:19:20;;;;;;;1.00;1.00;;;7.90;34.90;;;;;;10510322;28;20228;-80
2023/01/16 19:24:32;;;;;;;0.80;0.80;;;8.20;35.50;;;;;;10495717;28;20239;-77
2023/01/16 19:29:37;;;;;;;1.43;0.90;;;8.40;35.40;;;;;;10493578;28;20297;-78
2023/01/16 19:34:44;;;;;;;1.10;1.00;;;8.50;35.20;;;;;;10504452;28;20240;-79
2023/01/16 19:39:47;;;;;;;1.20;1.10;;;8.60;35.10;;;;;;10499106;28;20296;-77
2023/01/16 19:50:12;;;;;;;1.17;1.07;;;8.70;35.00;;;;;;10495624;28;20235;-80
2023/01/16 19:55:17;;;;;;;0.97;0.97;;;8.80;35.00;;;;;;10491079;28;20255;-77
2023/01/16 20:00:22;;;;;;;0.97;0.97;;;8.70;35.10;;;;;;10488364;28;20240;-78
2023/01/16 20:05:28;;;;;;;0.70;0.70;;;8.70;35.40;;;;;;10498779;28;20231;-78
2023/01/16 20:10:31;;;;;;;0.83;0.80;;;8.70;35.50;;;;;;10520595;28;20243;-79
2023/01/16 20:15:36;;;;;;;1.33;0.90;;;8.70;35.60;;;;;;10499258;28;20282;-78
2023/01/16 20:20:39;;;;;;;1.90;0.63;;;8.70;36.20;;;;;;10498790;28;20626;-78
2023/01/16 20:25:42;;;;;;;0.83;0.60;;;8.70;35.50;;;;;;10497007;28;20710;-80
2023/01/16 20:30:48;;;;;;;1.33;1.00;;;8.60;35.20;;;;;;10496460;28;20224;-77
2023/01/16 20:35:59;;;;;;;1.93;0.80;;;8.60;35.40;;;;;;10481201;28;20239;-79
2023/01/16 20:41:07;;;;;;;2.20;1.30;;;8.60;35.10;;;;;;10488921;28;20251;-79
2023/01/16 20:46:12;;;;;;;0.83;0.83;;;8.60;35.10;;;;;;10496849;28;20704;-79
2023/01/16 20:51:16;;;;;;;1.00;0.90;;;8.50;35.20;;;;;;10496564;28;20239;-78
2023/01/16 20:56:20;;;;;;;1.33;1.00;;;8.50;35.30;;;;;;10496812;28;20239;-78
2023/01/16 21:01:24;;;;;;;1.70;0.70;;;8.50;35.50;;;;;;10497633;28;20282;-79
2023/01/16 21:06:28;;;;;;;0.90;0.80;;;8.40;35.40;;;;;;10496648;28;20284;-78
2023/01/16 21:22:24;;;;;;;0.57;0.57;;;8.30;35.20;;;;;;10494205;28;20767;-79
2023/01/16 21:27:29;;;;;;;0.97;0.90;;;8.30;35.20;;;;;;10493204;28;20232;-79
2023/01/16 21:32:34;;;;;;;0.77;0.73;;;8.30;35.30;;;;;;10489934;28;20232;-81
2023/01/16 21:37:38;;;;;;;1.17;0.80;;;8.30;34.80;;;;;;10482145;28;20238;-81
2023/01/16 21:48:06;;;;;;;1.57;0.80;;;8.30;35.10;;;;;;10484378;28;20242;-81
2023/01/16 21:53:10;;;;;;;0.93;0.60;;;8.30;34.80;;;;;;10485590;28;20316;-81
2023/01/16 21:58:14;;;;;;;1.17;0.80;;;8.30;35.00;;;;;;10482128;28;20333;-81
2023/01/16 22:03:18;;;;;;;1.13;0.73;;;8.40;34.80;;;;;;10485693;28;20243;-81
2023/01/16 22:08:22;;;;;;;0.60;0.60;;;8.40;34.60;;;;;;10493437;28;20657;-81
2023/01/16 22:18:47;;;;;;;0.80;0.80;;;8.40;34.60;;;;;;10492267;28;20231;-81
2023/01/16 22:23:54;;;;;;;0.87;0.87;;;8.40;34.70;;;;;;10494787;28;20232;-81
2023/01/16 22:28:58;;;;;;;1.13;0.67;;;8.40;34.60;;;;;;10491336;28;20604;-81
2023/01/16 22:34:02;;;;;;;0.80;0.80;;;8.50;34.70;;;;;;10493752;28;20789;-81
2023/01/16 22:39:05;;;;;;;0.67;0.60;;;8.40;34.50;;;;;;10492579;28;20232;-81
2023/01/16 22:49:32;;;;;;;1.03;0.70;;;8.30;34.40;;;;;;10492870;28;20242;-81
2023/01/16 22:54:35;;;;;;;0.83;0.70;;;8.30;34.40;;;;;;10491860;28;20726;-81
2023/01/16 22:59:38;;;;;;;0.53;0.53;;;8.20;34.30;;;;;;10492094;28;20243;-81
2023/01/16 23:04:43;;;;;;;0.63;0.60;;;8.20;34.40;;;;;;10492475;28;20256;-81
2023/01/16 23:09:46;;;;;;;1.43;0.70;;;8.20;34.30;;;;;;10491734;28;20228;-81
2023/01/16 23:14:49;;;;;;;0.70;0.70;;;8.20;34.10;;;;;;10491933;28;20251;-81
2023/01/16 23:19:54;;;;;;;0.67;0.60;;;8.10;34.30;;;;;;10492110;28;20330;-81
2023/01/16 23:24:57;;;;;;;0.90;0.60;;;8.00;34.10;;;;;;10493276;28;20239;-81
2023/01/16 23:30:00;;;;;;;1.20;1.10;;;8.00;34.30;;;;;;10490174;28;20229;-81
2023/01/16 23:35:05;;;;;;;0.70;0.70;;;7.90;34.40;;;;;;10490992;28;20243;-81
2023/01/16 23:40:10;;;;;;;0.70;0.70;;;7.90;34.40;;;;;;10489677;28;20228;-81
2023/01/16 23:45:13;;;;;;;1.27;0.70;;;7.80;34.30;;;;;;10492233;28;20240;-80
2023/01/16 23:50:18;;;;;;;0.60;0.60;;;7.70;34.10;;;;;;10497780;28;20224;-81
2023/01/16 23:55:21;;;;;;;0.60;0.60;;;7.70;34.50;;;;;;10498471;28;20316;-81
